Time;durP1;ratioP1;P1;durP2;ratioP2;P2;SDS_P1;SDS_P2;PMS_P1;PMS_P2;Temp;Humidity;BMP_temperature;BMP_pressure;BME280_temperature;BME280_humidity;BME280_pressure;Samples;Min_cycle;Max_cycle;Signal;HPM_P1;HPM_P2
2021/07/05 05:07:18;;;;;;;9.07;4.17;;;;;;;24.67;75.55;99719.33;1764144;81;21153;-70
2021/07/05 05:13:46;;;;;;;5.27;3.20;;;;;;;26.07;70.12;99712.70;1735408;82;21295;-71
2021/07/05 05:16:20;;;;;;;5.62;3.70;;;;;;;26.28;67.81;99718.32;1748475;82;21188;-67
2021/07/05 05:18:53;;;;;;;4.67;3.80;;;;;;;26.23;66.95;99712.37;1732952;82;21220;-69
2021/07/05 05:21:28;;;;;;;4.42;4.00;;;;;;;26.15;66.82;99707.98;1718965;82;21567;-69
2021/07/05 05:24:01;;;;;;;6.62;3.95;;;;;;;26.03;66.43;99714.79;1735349;82;21320;-68
2021/07/05 05:26:34;;;;;;;5.03;3.77;;;;;;;25.86;66.25;99706.80;1747858;82;21350;-68
2021/07/05 05:33:17;;;;;;;5.08;3.52;;;;;;;25.60;66.99;99710.72;1747795;80;21219;-68
2021/07/05 05:35:50;;;;;;;5.20;3.87;;;;;;;25.42;67.03;99708.55;1733994;82;21189;-67
2021/07/05 05:38:23;;;;;;;3.80;3.40;;;;;;;25.29;67.52;99695.48;1749515;82;21765;-68
2021/07/05 05:40:56;;;;;;;4.67;3.30;;;;;;;25.23;67.79;99696.99;1736017;82;21554;-70
2021/07/05 05:43:29;;;;;;;5.00;3.45;;;;;;;25.16;67.86;99699.84;1747870;82;21313;-70
2021/07/05 05:46:02;;;;;;;4.30;3.30;;;;;;;25.10;68.10;99698.67;1736074;82;22093;-68
2021/07/05 05:48:35;;;;;;;;;;;;;;;25.07;68.18;99696.48;1752065;82;21194;-68
2021/07/05 05:51:08;;;;;;;6.30;4.10;;;;;;;25.03;68.42;99694.80;1734009;82;20272;-67
2021/07/05 05:53:41;;;;;;;4.17;3.40;;;;;;;24.97;68.57;99683.73;1747634;82;21403;-66
2021/07/05 05:56:14;;;;;;;5.97;3.83;;;;;;;24.98;68.66;99681.87;1733781;82;21272;-69
2021/07/05 05:58:47;;;;;;;4.92;3.40;;;;;;;25.13;68.56;99694.14;1744698;82;21184;-66
2021/07/05 06:05:31;;;;;;;4.72;3.45;;;;;;;25.25;68.23;99698.89;1768457;81;22159;-65
2021/07/05 06:08:04;;;;;;;6.60;3.52;;;;;;;25.53;67.78;99698.80;1768793;81;21340;-70
2021/07/05 06:10:38;;;;;;;;;;;;;;;25.79;66.87;99702.67;1769777;81;21280;-68
2021/07/05 06:13:11;;;;;;;6.75;3.77;;;;;;;26.00;65.42;99709.39;1757651;81;20225;-66
2021/07/05 06:15:44;;;;;;;7.55;3.45;;;;;;;26.14;65.00;99707.69;1766816;81;21200;-68
2021/07/05 06:18:17;;;;;;;6.90;3.80;;;;;;;26.30;64.29;99703.59;1768357;81;22001;-67
2021/07/05 06:20:50;;;;;;;;;;;;;;;26.39;63.93;99709.34;1771602;81;21189;-67
2021/07/05 06:23:27;;;;;;;9.40;3.80;;;;;;;26.47;63.80;99704.84;1768083;81;20209;-68
2021/07/05 06:26:01;;;;;;;7.05;3.35;;;;;;;26.52;63.37;99691.48;1766731;81;21563;-66
2021/07/05 06:28:35;;;;;;;5.45;3.83;;;;;;;26.56;63.04;99700.12;1768084;81;21444;-67
2021/07/05 06:31:09;;;;;;;9.63;4.12;;;;;;;26.52;63.08;99702.22;1766925;81;22102;-67
2021/07/05 06:33:42;;;;;;;10.95;3.40;;;;;;;26.45;63.42;99696.24;1768055;81;22023;-68
2021/07/05 06:36:16;;;;;;;4.12;3.67;;;;;;;26.44;63.46;99691.95;1766998;81;21296;-67
2021/07/05 06:38:50;;;;;;;5.37;3.98;;;;;;;26.44;63.64;99697.32;1768087;81;21874;-67
2021/07/05 06:41:25;;;;;;;5.25;4.40;;;;;;;26.45;63.82;99694.90;1766736;81;22061;-66
2021/07/05 06:43:58;;;;;;;5.55;4.08;;;;;;;26.49;63.43;99690.11;1768121;81;21837;-65
2021/07/05 06:46:31;;;;;;;6.67;4.25;;;;;;;26.63;63.26;99698.56;1768387;81;21261;-66
2021/07/05 06:49:06;;;;;;;4.40;3.65;;;;;;;26.81;62.68;99698.77;1768165;81;21173;-65
2021/07/05 06:51:40;;;;;;;9.80;3.75;;;;;;;26.98;62.22;99694.09;1766582;80;21477;-64
2021/07/05 06:54:13;;;;;;;7.42;4.22;;;;;;;27.16;61.74;99693.69;1768324;81;21437;-66
2021/07/05 06:56:47;;;;;;;8.98;4.10;;;;;;;27.32;61.04;99700.26;1768093;81;21240;-66
2021/07/05 06:59:20;;;;;;;7.25;4.00;;;;;;;27.41;60.65;99706.54;1768063;81;21240;-65
2021/07/05 07:01:53;;;;;;;7.62;4.53;;;;;;;27.37;60.03;99709.73;1779815;80;21412;-65
2021/07/05 07:04:26;;;;;;;8.20;3.92;;;;;;;27.34;60.64;99710.77;1781844;80;21999;-68
2021/07/05 07:07:00;;;;;;;5.28;3.72;;;;;;;27.15;59.78;99725.15;1780205;80;21184;-67
2021/07/05 07:09:34;;;;;;;4.12;3.50;;;;;;;27.15;59.78;99725.15;1781680;80;22096;-65
2021/07/05 07:12:08;;;;;;;3.90;3.60;;;;;;;27.03;59.82;99727.20;1781699;80;22119;-68
2021/07/05 07:14:42;;;;;;;3.50;3.12;;;;;;;26.95;59.84;99730.86;1780052;80;21181;-67
2021/07/05 07:17:31;;;;;;;4.53;3.50;;;;;;;26.94;59.98;99731.39;1780758;80;21176;-65
2021/07/05 07:20:00;;;;;;;4.95;3.35;;;;;;;27.14;60.07;99717.33;1781536;80;21585;-68
2021/07/05 07:22:33;;;;;;;8.53;3.62;;;;;;;27.47;59.26;99726.47;1781840;80;21350;-65
2021/07/05 07:25:09;;;;;;;5.33;3.20;;;;;;;27.77;58.54;99732.59;1781816;80;21271;-66
2021/07/05 07:27:42;;;;;;;8.50;4.42;;;;;;;28.01;56.89;99737.30;1782001;80;21318;-67
2021/07/05 07:30:17;;;;;;;8.50;3.52;;;;;;;28.12;56.50;99736.01;1783790;80;21307;-66
2021/07/05 07:32:50;;;;;;;8.10;3.33;;;;;;;28.24;55.13;99741.98;1781738;80;22165;-67
2021/07/05 07:35:22;;;;;;;9.78;3.55;;;;;;;28.20;55.11;99741.72;1781898;80;21400;-67
2021/07/05 07:42:06;;;;;;;12.18;3.45;;;;;;;28.15;55.93;99736.84;1780349;80;22176;-64
2021/07/05 07:44:40;;;;;;;7.42;3.95;;;;;;;28.35;55.87;99743.09;1781765;80;21590;-64
2021/07/05 07:47:13;;;;;;;5.00;3.52;;;;;;;28.61;55.74;99754.25;1780561;80;21319;-65
2021/07/05 07:49:47;;;;;;;8.45;3.20;;;;;;;28.71;54.50;99746.73;1781633;80;21291;-63
2021/07/05 07:52:20;;;;;;;6.53;3.45;;;;;;;28.81;54.48;99746.75;1780922;80;21208;-71
2021/07/05 07:54:54;;;;;;;5.37;2.80;;;;;;;28.93;53.85;99759.44;1780411;80;22128;-66
2021/07/05 07:57:29;;;;;;;11.33;4.72;;;;;;;28.97;53.56;99765.11;1780032;80;21604;-67
2021/07/05 08:00:04;;;;;;;6.95;3.00;;;;;;;29.11;53.73;99759.47;1781810;80;21342;-64
2021/07/05 08:02:41;;;;;;;5.53;3.35;;;;;;;29.36;52.44;99759.48;1768648;80;21232;-65
2021/07/05 08:05:14;;;;;;;4.47;3.33;;;;;;;29.65;52.81;99754.33;1767983;81;21189;-68
2021/07/05 08:07:47;;;;;;;;;;;;;;;30.34;51.52;99750.39;1771589;81;22141;-65
2021/07/05 08:10:19;;;;;;;5.85;2.90;;;;;;;31.14;49.33;99741.00;1767772;81;20232;-67
2021/07/05 08:12:53;;;;;;;5.12;3.00;;;;;;;31.91;47.67;99739.45;1766830;81;21387;-66
2021/07/05 08:15:28;;;;;;;5.10;3.10;;;;;;;32.71;46.62;99728.71;1766611;80;21189;-66
2021/07/05 08:18:01;;;;;;;4.37;2.83;;;;;;;33.22;44.74;99728.17;1766660;81;21598;-65
2021/07/05 08:20:35;;;;;;;6.55;2.87;;;;;;;33.54;43.30;99732.00;1767978;81;21431;-68
2021/07/05 08:23:08;;;;;;;4.55;2.72;;;;;;;33.95;42.39;99723.33;1766753;81;21363;-65
2021/07/05 08:25:43;;;;;;;5.72;3.08;;;;;;;34.48;41.05;99711.36;1753222;79;21310;-64
2021/07/05 08:28:16;;;;;;;6.00;2.80;;;;;;;34.93;40.64;99710.87;1751766;81;21184;-66
2021/07/05 08:30:49;;;;;;;5.28;3.33;;;;;;;35.36;39.61;99708.45;1701011;82;21501;-66
2021/07/05 08:33:23;;;;;;;3.77;2.87;;;;;;;35.80;38.29;99697.48;1692206;84;21206;-64
2021/07/05 08:35:56;;;;;;;8.08;3.08;;;;;;;36.26;37.70;99695.03;1688876;85;21196;-67
2021/07/05 08:38:31;;;;;;;4.58;2.83;;;;;;;36.72;36.93;99692.27;1756709;81;21181;-65
2021/07/05 08:45:14;;;;;;;3.98;2.60;;;;;;;36.99;36.89;99685.95;1758267;81;21417;-66
2021/07/05 08:47:50;;;;;;;5.03;2.60;;;;;;;37.01;35.41;99676.06;1754142;81;21225;-64
2021/07/05 08:50:24;;;;;;;5.00;2.58;;;;;;;36.97;35.56;99688.77;1752636;81;21322;-63
2021/07/05 08:52:59;;;;;;;4.25;2.40;;;;;;;36.82;35.42;99685.12;1751475;81;22020;-65
2021/07/05 08:55:33;;;;;;;5.90;2.40;;;;;;;36.81;35.79;99686.24;1752715;81;21303;-66
2021/07/05 08:58:08;;;;;;;9.80;2.80;;;;;;;36.95;35.41;99686.34;1752223;81;21308;-66
2021/07/05 09:00:41;;;;;;;12.43;2.92;;;;;;;36.84;35.03;99682.88;1732339;81;21998;-67
2021/07/05 09:03:14;;;;;;;30.62;3.12;;;;;;;36.37;34.63;99681.35;1757403;80;21200;-68
2021/07/05 09:05:50;;;;;;;9.43;2.60;;;;;;;35.56;35.38;99677.42;1763199;81;21350;-63
2021/07/05 09:08:23;;;;;;;7.10;2.75;;;;;;;34.66;36.94;99687.31;1728419;81;21356;-64
2021/07/05 09:10:57;;;;;;;5.53;2.60;;;;;;;33.95;39.25;99692.10;1761762;81;21995;-65
2021/07/05 09:13:31;;;;;;;5.92;2.77;;;;;;;33.48;39.28;99672.92;1761702;81;21177;-66
2021/07/05 09:16:06;;;;;;;4.83;2.62;;;;;;;33.28;40.46;99677.90;1765632;80;22089;-64
2021/07/05 09:18:47;;;;;;;3.20;2.70;;;;;;;33.11;40.63;99677.92;1761149;80;21379;-64
2021/07/05 09:21:26;;;;;;;3.83;2.80;;;;;;;32.99;41.59;99683.52;1781405;79;21264;-64
2021/07/05 09:24:07;;;;;;;3.20;2.65;;;;;;;33.01;41.82;99690.27;1732914;79;21191;-66
2021/07/05 09:26:47;;;;;;;3.22;2.75;;;;;;;32.94;41.75;99689.84;1727017;83;21299;-67
2021/07/05 09:29:24;;;;;;;6.08;2.72;;;;;;;32.91;43.02;99689.64;1725665;82;22127;-66
2021/07/05 09:36:07;;;;;;;4.78;3.27;;;;;;;32.62;42.21;99690.37;1727241;82;22051;-65
2021/07/05 09:38:42;;;;;;;6.55;3.02;;;;;;;32.15;43.31;99692.64;1709408;82;21314;-66
2021/07/05 09:41:23;;;;;;;11.38;3.12;;;;;;;31.88;43.55;99685.09;1730943;82;21959;-67
2021/07/05 09:43:59;;;;;;;9.73;3.42;;;;;;;31.74;44.97;99689.59;1729668;82;21198;-66
2021/07/05 09:46:38;;;;;;;7.25;3.02;;;;;;;31.63;45.27;99700.25;1730956;82;21228;-68
2021/07/05 09:49:32;;;;;;;13.22;3.50;;;;;;;31.66;45.56;99699.68;1730258;82;21271;-67
2021/07/05 09:52:17;;;;;;;5.42;3.27;;;;;;;31.80;44.96;99700.06;1729529;83;21153;-68
2021/07/05 09:54:50;;;;;;;;;;;;;;;31.84;44.90;99711.09;1732197;82;21216;-69
2021/07/05 09:57:25;;;;;;;6.80;2.85;;;;;;;31.78;43.93;99709.02;1730694;83;20323;-67
2021/07/05 10:04:11;;;;;;;8.70;3.00;;;;;;;31.57;41.58;99699.52;1729613;81;22055;-67
2021/07/05 10:06:48;;;;;;;10.53;3.47;;;;;;;31.32;42.20;99701.07;1730957;82;21184;-66
2021/07/05 10:13:31;;;;;;;12.13;3.15;;;;;;;31.18;42.71;99706.88;1730165;82;21994;-70
2021/07/05 10:16:06;;;;;;;;;;;;;;;31.29;42.63;99692.17;1733285;82;21975;-67
2021/07/05 10:18:39;;;;;;;19.62;3.33;;;;;;;31.41;41.84;99697.22;1730520;83;20694;-66
2021/07/05 10:21:14;;;;;;;25.35;4.05;;;;;;;31.47;42.35;99698.26;1731105;82;22208;-68
2021/07/05 10:23:48;;;;;;;11.15;3.05;;;;;;;31.65;41.40;99700.76;1729914;82;21291;-68
2021/07/05 10:26:21;;;;;;;9.65;3.42;;;;;;;31.67;41.62;99700.73;1730793;83;21177;-67
2021/07/05 10:28:55;;;;;;;6.05;3.00;;;;;;;31.55;41.77;99691.42;1730396;82;21211;-66
2021/07/05 10:31:28;;;;;;;8.50;2.70;;;;;;;31.26;42.61;99689.48;1730733;82;21177;-67
2021/07/05 10:34:03;;;;;;;13.85;3.35;;;;;;;30.94;43.56;99687.08;1729858;82;21314;-65
2021/07/05 10:36:38;;;;;;;14.87;3.72;;;;;;;30.69;43.86;99698.06;1707488;83;21165;-68
2021/07/05 10:39:12;;;;;;;6.70;3.12;;;;;;;30.35;44.46;99695.30;1707854;82;21378;-65
2021/07/05 10:46:00;;;;;;;8.80;2.98;;;;;;;29.79;46.27;99693.34;1735671;82;21263;-70
2021/07/05 10:48:40;;;;;;;6.20;3.42;;;;;;;29.41;47.71;99691.25;1735458;82;21343;-68
2021/07/05 10:51:15;;;;;;;7.08;3.33;;;;;;;29.23;48.02;99694.77;1737837;82;21299;-68
2021/07/05 10:53:53;;;;;;;4.15;3.10;;;;;;;29.01;48.59;99689.37;1735195;82;21305;-64
2021/07/05 10:56:44;;;;;;;5.03;3.20;;;;;;;28.82;49.22;99699.89;1736384;82;21346;-64
2021/07/05 10:59:27;;;;;;;7.53;3.05;;;;;;;28.68;49.93;99702.27;1735692;82;21325;-66
2021/07/05 11:02:00;;;;;;;;;;;;;;;28.54;50.35;99685.55;1738562;82;21158;-68
2021/07/05 11:04:33;;;;;;;7.12;3.25;;;;;;;28.40;50.76;99697.34;1735842;82;20188;-66
2021/07/05 11:07:15;;;;;;;4.30;3.05;;;;;;;28.30;51.50;99691.92;1680602;82;22046;-66
2021/07/05 11:09:57;;;;;;;7.47;3.50;;;;;;;28.30;52.01;99702.70;1736851;82;21343;-66
2021/07/05 11:12:32;;;;;;;16.50;3.72;;;;;;;28.32;51.96;99709.18;1737522;82;21296;-67
2021/07/05 11:15:07;;;;;;;12.10;3.65;;;;;;;28.29;52.25;99699.75;1735989;82;21450;-66
2021/07/05 11:17:40;;;;;;;4.97;3.10;;;;;;;28.24;52.34;99696.22;1737330;82;21280;-67
2021/07/05 11:20:17;;;;;;;6.45;3.08;;;;;;;28.20;52.35;99697.30;1736989;82;21264;-65
2021/07/05 11:23:00;;;;;;;9.30;3.67;;;;;;;28.16;52.48;99697.53;1737375;82;21570;-67
2021/07/05 11:25:31;;;;;;;7.17;3.45;;;;;;;28.15;52.91;99701.32;1736030;82;21311;-67
2021/07/05 11:28:04;;;;;;;5.67;3.30;;;;;;;28.18;52.82;99702.67;1737404;82;21363;-67
2021/07/05 11:30:39;;;;;;;7.10;3.75;;;;;;;28.23;53.47;99702.70;1726793;82;21519;-65
2021/07/05 11:33:17;;;;;;;10.60;3.52;;;;;;;28.36;53.14;99708.38;1737387;82;21287;-65
2021/07/05 11:35:59;;;;;;;10.72;3.52;;;;;;;28.48;53.08;99702.22;1736576;82;21434;-65
2021/07/05 11:38:42;;;;;;;10.88;3.90;;;;;;;28.58;53.16;99695.52;1737343;82;21343;-65
2021/07/05 11:41:21;;;;;;;6.97;3.55;;;;;;;28.68;52.70;99691.50;1735843;82;22062;-64
2021/07/05 11:44:15;;;;;;;9.70;4.08;;;;;;;28.73;52.69;99704.72;1737344;82;21316;-66
2021/07/05 11:46:48;;;;;;;9.80;3.70;;;;;;;28.71;52.79;99703.63;1736022;82;21508;-66
2021/07/05 11:49:24;;;;;;;7.95;3.92;;;;;;;28.63;52.97;99709.03;1752598;81;21551;-67
2021/07/05 11:51:59;;;;;;;11.60;4.12;;;;;;;28.59;53.51;99709.27;1761519;81;21188;-66
2021/07/05 11:54:36;;;;;;;10.65;3.92;;;;;;;28.52;53.67;99711.91;1762553;81;21419;-67
2021/07/05 11:57:12;;;;;;;6.70;3.98;;;;;;;28.37;53.46;99716.75;1761398;81;21301;-67
2021/07/05 11:59:48;;;;;;;5.72;4.30;;;;;;;28.19;54.01;99713.70;1762833;81;21272;-66
2021/07/05 12:02:20;;;;;;;6.35;3.98;;;;;;;28.06;54.51;99708.29;1761269;81;21220;-67
2021/07/05 12:04:53;;;;;;;9.75;3.62;;;;;;;27.99;55.02;99716.58;1753025;79;21456;-66
2021/07/05 12:07:26;;;;;;;8.15;3.87;;;;;;;28.00;55.37;99720.91;1661589;85;22148;-66
2021/07/05 12:09:59;;;;;;;8.38;4.00;;;;;;;28.01;55.41;99721.16;1727097;82;22022;-69
2021/07/05 12:12:32;;;;;;;7.15;3.52;;;;;;;28.02;55.33;99721.97;1727877;83;21853;-66
2021/07/05 12:15:07;;;;;;;7.70;3.83;;;;;;;28.05;55.86;99717.42;1726259;83;21344;-67
2021/07/05 12:17:40;;;;;;;12.53;4.03;;;;;;;28.13;56.05;99720.97;1681087;83;21196;-68
2021/07/05 12:20:15;;;;;;;28.85;5.62;;;;;;;28.24;55.62;99723.14;1682602;85;21600;-68
2021/07/05 12:22:48;;;;;;;11.05;4.30;;;;;;;28.39;55.31;99727.23;1655449;86;21199;-68
2021/07/05 12:25:20;;;;;;;5.25;3.83;;;;;;;28.51;55.21;99724.59;1728562;83;21188;-70
2021/07/05 12:32:17;;;;;;;8.98;3.90;;;;;;;28.48;54.83;99730.50;1728029;83;21219;-68
2021/07/05 12:34:58;;;;;;;10.00;4.08;;;;;;;28.36;54.83;99716.98;1682138;85;21192;-67
2021/07/05 12:37:36;;;;;;;7.85;3.92;;;;;;;28.36;55.38;99709.73;1681092;85;21333;-66
2021/07/05 12:40:22;;;;;;;4.72;3.65;;;;;;;28.43;55.42;99718.36;1653260;86;21420;-67
2021/07/05 12:43:07;;;;;;;24.50;4.62;;;;;;;28.47;55.57;99713.23;1725350;83;22125;-67
2021/07/05 12:45:56;;;;;;;7.90;4.20;;;;;;;28.43;54.74;99707.59;1726288;83;21318;-68
2021/07/05 12:48:31;;;;;;;15.65;4.65;;;;;;;28.31;55.30;99714.28;1730640;81;21987;-68
2021/07/05 12:51:06;;;;;;;8.78;3.67;;;;;;;28.23;56.09;99712.12;1737607;82;21178;-68
2021/07/05 12:53:43;;;;;;;10.05;3.47;;;;;;;28.19;56.43;99712.35;1734017;79;21303;-68
2021/07/05 12:56:25;;;;;;;6.08;3.20;;;;;;;28.20;56.48;99713.98;1732849;82;21579;-67
2021/07/05 12:59:21;;;;;;;5.72;3.90;;;;;;;28.16;55.68;99704.83;1731546;82;21296;-65
2021/07/05 13:01:55;;;;;;;7.28;3.70;;;;;;;28.07;56.06;99715.27;1730040;82;21254;-65
2021/07/05 13:04:29;;;;;;;9.93;3.55;;;;;;;28.02;56.98;99713.38;1731582;82;21307;-63
2021/07/05 13:07:03;;;;;;;11.40;3.87;;;;;;;28.03;56.70;99705.59;1727096;82;21459;-66
2021/07/05 13:09:39;;;;;;;6.10;4.00;;;;;;;28.08;56.50;99703.98;1723643;82;21244;-66
2021/07/05 13:12:16;;;;;;;9.63;3.87;;;;;;;28.09;56.48;99711.77;1724532;82;21318;-65
2021/07/05 13:14:49;;;;;;;21.93;3.80;;;;;;;28.08;55.87;99706.67;1725983;81;21315;-66
2021/07/05 13:21:37;;;;;;;7.35;3.52;;;;;;;28.09;55.52;99702.36;1702267;83;21994;-65
2021/07/05 13:24:27;;;;;;;23.00;4.55;;;;;;;28.08;55.81;99703.98;1702001;83;21199;-67
2021/07/05 13:27:05;;;;;;;8.88;3.87;;;;;;;28.04;55.57;99699.64;1700765;83;21367;-67
2021/07/05 13:29:38;;;;;;;9.65;3.40;;;;;;;27.97;55.71;99704.42;1718229;81;21188;-65
2021/07/05 13:32:21;;;;;;;8.68;3.52;;;;;;;27.97;55.71;99704.42;1730636;82;21193;-66
2021/07/05 13:35:14;;;;;;;6.00;3.47;;;;;;;27.93;56.36;99696.61;1731055;82;21333;-65
2021/07/05 13:37:48;;;;;;;9.85;3.67;;;;;;;27.91;56.29;99688.81;1730460;82;22002;-65
2021/07/05 13:40:22;;;;;;;16.37;3.40;;;;;;;27.92;56.64;99692.30;1731227;82;21188;-66
2021/07/05 13:43:04;;;;;;;7.80;4.60;;;;;;;27.98;56.89;99688.57;1730471;82;21289;-65
2021/07/05 13:45:42;;;;;;;3.83;3.00;;;;;;;28.01;56.48;99686.17;1730966;82;21291;-65
2021/07/05 13:48:15;;;;;;;5.15;3.00;;;;;;;27.94;56.32;99690.96;1730807;82;21207;-65
2021/07/05 13:50:53;;;;;;;8.48;2.95;;;;;;;27.81;57.32;99685.26;1730995;82;21347;-66
2021/07/05 13:53:31;;;;;;;10.55;3.80;;;;;;;27.79;57.77;99698.16;1730159;82;21288;-65
